Pagrindinis puslapis
METAR-TAF:

METAR-TAF

Oro uostai :

Orange_County_Airport

Orange, Teksasas, Jungtinės Amerikos Valstijos

platuma: 30-04-09N, ilguma: 093-48-13W, Aukštis: 4 m

Dabartinis oras

Ataskaita buvo paskelbta 25 minutes, ne 06:35 UTC
Ramus vėjas
Temperatūra 20°C
Drėgmė 94%
Slėgis 1013 hPa
Matomumas: 16.1 km
Giedras dangus

METAR: KORG 270635Z AUTO 00000KT 10SM CLR 20/19 A2990 RMK AO2 T02030190

Laikas: 02:00 (07:00 UTC)


TAF: trūkstamas

Orai ataskaitas ir orų prognozės (METAR, TAF).

turimą stotys yra geltonos ir raudonos taškus žemėlapyje.

Perkelti pele per norėdami pamatyti stoties vardą.

Tada spustelėkite, norėdami matyti oro stebėjimo ir prognozės.

Norėdami pakeisti žemėlapį: spustelėkite ant žalios mygtukų su juodo kryžiaus žemyn,; žalią mygtuką su brūkšneliu, jei norite nutolinti; arba žalių rodyklių gretimoms žemėlapius.


METAR-TAF: